Time;durP1;ratioP1;P1;durP2;ratioP2;P2;SDS_P1;SDS_P2;PMS_P1;PMS_P2;Temp;Humidity;BMP_temperature;BMP_pressure;BME280_temperature;BME280_humidity;BME280_pressure;Samples;Min_cycle;Max_cycle;Signal;HPM_P1;HPM_P2
2022/05/15 00:01:40;;;;;;;14.02;4.70;;;;;;;;;;7381049;19;20078;-76
2022/05/15 00:04:07;;;;;;;12.82;4.53;;;;;;;;;;7383035;19;20010;-75
2022/05/15 00:06:32;;;;;;;14.43;4.47;;;;;;;;;;7385835;19;20014;-78
2022/05/15 00:08:58;;;;;;;14.70;4.97;;;;;;;;;;7384040;19;20014;-78
2022/05/15 00:11:23;;;;;;;14.73;4.60;;;;;;;;;;7376001;19;20798;-78
2022/05/15 00:13:49;;;;;;;11.63;4.57;;;;;;;;;;7386405;19;20010;-75
2022/05/15 00:16:14;;;;;;;18.15;5.55;;;;;;;;;;7382732;19;20226;-77
2022/05/15 00:18:40;;;;;;;14.70;5.18;;;;;;;;;;7387268;19;20008;-78
2022/05/15 00:21:08;;;;;;;13.90;4.60;;;;;;;;;;7380384;19;20016;-77
2022/05/15 00:23:33;;;;;;;12.30;4.70;;;;;;;;;;7365999;19;20088;-78
2022/05/15 00:25:59;;;;;;;18.77;5.15;;;;;;;;;;7379996;19;20014;-76
2022/05/15 00:28:24;;;;;;;14.90;5.25;;;;;;;;;;7372490;19;19999;-80
2022/05/15 00:30:49;;;;;;;13.23;5.50;;;;;;;;;;7372563;19;20251;-77
2022/05/15 00:33:15;;;;;;;14.70;4.72;;;;;;;;;;7385067;19;20007;-76
2022/05/15 00:35:40;;;;;;;13.70;4.70;;;;;;;;;;7385508;19;19991;-76
2022/05/15 00:38:06;;;;;;;11.65;4.97;;;;;;;;;;7382479;19;20014;-80
2022/05/15 00:40:32;;;;;;;14.43;5.18;;;;;;;;;;7384476;19;20014;-78
2022/05/15 00:42:57;;;;;;;9.95;4.47;;;;;;;;;;7385132;19;20013;-75
2022/05/15 00:45:23;;;;;;;18.90;5.03;;;;;;;;;;7386411;19;19998;-80
2022/05/15 00:47:48;;;;;;;15.80;4.47;;;;;;;;;;7380647;19;20014;-75
2022/05/15 00:50:15;;;;;;;12.15;4.82;;;;;;;;;;7379305;19;20026;-77
2022/05/15 00:52:43;;;;;;;14.63;5.45;;;;;;;;;;7383232;19;20009;-77
2022/05/15 00:55:18;;;;;;;15.13;4.47;;;;;;;;;;7383133;19;20478;-75
2022/05/15 00:57:47;;;;;;;14.15;4.20;;;;;;;;;;7384870;19;20029;-76
2022/05/15 01:00:17;;;;;;;11.88;5.32;;;;;;;;;;7386381;19;20020;-76
2022/05/15 01:02:46;;;;;;;9.65;4.30;;;;;;;;;;7377097;19;20015;-77
2022/05/15 01:05:12;;;;;;;10.77;4.47;;;;;;;;;;7383688;19;20031;-80
2022/05/15 01:07:37;;;;;;;19.30;5.28;;;;;;;;;;7378942;19;20018;-77
2022/05/15 01:10:04;;;;;;;16.67;4.80;;;;;;;;;;7380037;19;20038;-75
2022/05/15 01:12:30;;;;;;;12.73;4.90;;;;;;;;;;7380338;19;20338;-74
2022/05/15 01:14:56;;;;;;;13.82;4.93;;;;;;;;;;7382999;19;20542;-74
2022/05/15 01:17:21;;;;;;;17.13;4.88;;;;;;;;;;7384872;19;20021;-74
2022/05/15 01:19:46;;;;;;;12.53;4.80;;;;;;;;;;7376878;19;19995;-76
2022/05/15 01:22:15;;;;;;;8.87;4.20;;;;;;;;;;7384156;19;20251;-81
2022/05/15 01:24:40;;;;;;;14.85;4.85;;;;;;;;;;7383564;19;20262;-77
2022/05/15 01:27:07;;;;;;;11.00;4.93;;;;;;;;;;7381472;19;20007;-74
2022/05/15 01:29:35;;;;;;;18.15;5.63;;;;;;;;;;7384173;19;20011;-79
2022/05/15 01:32:00;;;;;;;12.20;5.47;;;;;;;;;;7381816;19;20030;-75
2022/05/15 01:34:26;;;;;;;16.73;5.22;;;;;;;;;;7380986;19;20454;-75
2022/05/15 01:36:52;;;;;;;15.90;4.80;;;;;;;;;;7382898;19;20014;-75
2022/05/15 01:39:17;;;;;;;13.38;4.80;;;;;;;;;;7375461;19;20002;-78
2022/05/15 01:41:43;;;;;;;15.40;5.43;;;;;;;;;;7379329;19;20046;-80
2022/05/15 01:44:08;;;;;;;17.75;4.88;;;;;;;;;;7386476;19;20021;-76
2022/05/15 01:46:33;;;;;;;13.18;4.97;;;;;;;;;;7381118;19;20407;-75
2022/05/15 01:49:04;;;;;;;13.63;4.82;;;;;;;;;;7382047;19;20019;-75
2022/05/15 01:51:29;;;;;;;15.02;5.55;;;;;;;;;;7383721;19;20022;-74
2022/05/15 01:53:54;;;;;;;15.52;5.18;;;;;;;;;;7380278;19;20006;-76
2022/05/15 01:56:19;;;;;;;14.60;4.53;;;;;;;;;;7378361;19;20011;-75
2022/05/15 01:58:45;;;;;;;11.03;4.50;;;;;;;;;;7381708;19;20018;-75
2022/05/15 02:01:10;;;;;;;12.30;4.80;;;;;;;;;;7384133;19;20279;-76
2022/05/15 02:03:35;;;;;;;15.73;5.30;;;;;;;;;;7380575;19;20014;-78
2022/05/15 02:06:01;;;;;;;11.63;4.72;;;;;;;;;;7385219;19;19999;-77
2022/05/15 02:08:30;;;;;;;10.65;5.35;;;;;;;;;;7377394;19;20470;-77
2022/05/15 02:10:55;;;;;;;16.98;6.32;;;;;;;;;;7379499;19;20006;-78
2022/05/15 02:13:21;;;;;;;14.57;5.63;;;;;;;;;;7383701;19;20018;-77
2022/05/15 02:15:46;;;;;;;13.45;5.45;;;;;;;;;;7381829;19;20795;-74
2022/05/15 02:18:11;;;;;;;16.35;5.95;;;;;;;;;;7380313;19;20003;-76
2022/05/15 02:20:37;;;;;;;12.97;5.23;;;;;;;;;;7382223;19;19995;-79
2022/05/15 02:23:02;;;;;;;18.27;6.63;;;;;;;;;;7384389;19;20184;-83
2022/05/15 02:25:27;;;;;;;15.45;5.53;;;;;;;;;;7374757;19;19999;-78
2022/05/15 02:27:54;;;;;;;14.30;6.95;;;;;;;;;;7384038;19;19999;-74
2022/05/15 02:30:20;;;;;;;15.77;5.68;;;;;;;;;;7382198;19;20018;-75
2022/05/15 02:32:46;;;;;;;16.30;5.55;;;;;;;;;;7372152;19;20611;-76
2022/05/15 02:35:11;;;;;;;9.70;4.95;;;;;;;;;;7377811;19;20015;-81
2022/05/15 02:37:37;;;;;;;17.65;6.32;;;;;;;;;;7381280;19;20106;-76
2022/05/15 02:40:03;;;;;;;16.60;6.07;;;;;;;;;;7369381;19;20426;-80
2022/05/15 02:42:28;;;;;;;14.70;6.22;;;;;;;;;;7377103;19;20034;-78
2022/05/15 02:44:53;;;;;;;14.75;5.68;;;;;;;;;;7378809;19;20006;-80
2022/05/15 02:47:18;;;;;;;12.23;5.55;;;;;;;;;;7377456;19;20070;-75
2022/05/15 02:52:27;;;;;;;10.90;5.60;;;;;;;;;;7371958;19;20027;-78
2022/05/15 02:54:52;;;;;;;15.60;6.15;;;;;;;;;;7378904;19;19999;-76
2022/05/15 02:57:18;;;;;;;16.10;7.07;;;;;;;;;;7383276;19;20019;-75
2022/05/15 02:59:43;;;;;;;16.73;6.30;;;;;;;;;;7380335;19;20027;-76
2022/05/15 03:02:08;;;;;;;13.77;5.73;;;;;;;;;;7372113;19;20031;-77
2022/05/15 03:04:36;;;;;;;13.27;5.50;;;;;;;;;;7381802;19;20331;-78
2022/05/15 03:07:02;;;;;;;15.93;6.18;;;;;;;;;;7382284;19;20247;-76
2022/05/15 03:09:27;;;;;;;12.35;5.97;;;;;;;;;;7379757;19;20041;-77
2022/05/15 03:11:52;;;;;;;22.63;6.17;;;;;;;;;;7375762;19;20011;-75
2022/05/15 03:14:17;;;;;;;13.55;5.50;;;;;;;;;;7381495;19;20256;-77
2022/05/15 03:16:42;;;;;;;19.73;5.87;;;;;;;;;;7381479;19;20093;-76
2022/05/15 03:19:08;;;;;;;15.07;5.67;;;;;;;;;;7381233;19;20235;-78
2022/05/15 03:21:33;;;;;;;12.00;5.90;;;;;;;;;;7362649;19;20872;-77
2022/05/15 03:24:00;;;;;;;11.53;5.17;;;;;;;;;;7364158;19;20085;-75
2022/05/15 03:26:26;;;;;;;14.27;5.90;;;;;;;;;;7380697;19;20345;-74
2022/05/15 03:28:51;;;;;;;12.15;5.80;;;;;;;;;;7385766;19;20002;-77
2022/05/15 03:31:16;;;;;;;16.58;5.75;;;;;;;;;;7378684;19;20470;-76
2022/05/15 03:33:42;;;;;;;12.63;5.68;;;;;;;;;;7375158;19;20007;-75
2022/05/15 03:38:43;;;;;;;13.45;5.38;;;;;;;;;;7344274;19;19999;-81
2022/05/15 03:41:09;;;;;;;14.40;5.28;;;;;;;;;;7381861;19;20762;-82
2022/05/15 03:43:35;;;;;;;18.65;6.75;;;;;;;;;;7376647;19;20010;-82
2022/05/15 03:46:00;;;;;;;13.07;5.78;;;;;;;;;;7375501;19;19999;-82
2022/05/15 03:48:25;;;;;;;14.75;5.63;;;;;;;;;;7385552;19;20015;-77
2022/05/15 03:50:50;;;;;;;13.50;5.80;;;;;;;;;;7382356;19;19999;-75
2022/05/15 03:53:15;;;;;;;16.75;5.38;;;;;;;;;;7386067;19;20247;-81
2022/05/15 03:55:41;;;;;;;12.27;5.93;;;;;;;;;;7386144;19;20006;-80
2022/05/15 03:58:06;;;;;;;12.70;6.50;;;;;;;;;;7386252;19;20070;-78
2022/05/15 04:00:31;;;;;;;12.05;5.05;;;;;;;;;;7384708;19;19998;-79
2022/05/15 04:02:56;;;;;;;11.93;5.45;;;;;;;;;;7385012;19;20006;-77
2022/05/15 04:05:22;;;;;;;12.05;5.63;;;;;;;;;;7389274;19;20007;-78
2022/05/15 04:07:48;;;;;;;10.45;5.68;;;;;;;;;;7382132;19;20011;-78
2022/05/15 04:10:15;;;;;;;12.98;5.68;;;;;;;;;;7382322;19;20604;-76
2022/05/15 04:12:41;;;;;;;14.05;5.60;;;;;;;;;;7383874;19;20015;-76
2022/05/15 04:15:06;;;;;;;12.02;4.68;;;;;;;;;;7384552;19;20037;-79
2022/05/15 04:17:31;;;;;;;14.50;6.35;;;;;;;;;;7385603;19;20300;-79
2022/05/15 04:20:00;;;;;;;15.70;5.47;;;;;;;;;;7383048;19;20450;-77
2022/05/15 04:22:25;;;;;;;14.73;5.22;;;;;;;;;;7388554;19;19998;-78
2022/05/15 04:24:50;;;;;;;14.40;5.50;;;;;;;;;;7379400;19;20565;-78
2022/05/15 04:27:16;;;;;;;14.18;5.80;;;;;;;;;;7386350;19;20078;-75
2022/05/15 04:29:41;;;;;;;15.63;4.97;;;;;;;;;;7386000;19;20108;-77
2022/05/15 04:32:06;;;;;;;15.90;5.28;;;;;;;;;;7382313;19;20010;-76
2022/05/15 04:34:32;;;;;;;13.20;5.20;;;;;;;;;;7381576;19;20027;-79
2022/05/15 04:36:57;;;;;;;14.38;5.55;;;;;;;;;;7370663;19;20119;-82
2022/05/15 04:39:22;;;;;;;11.30;4.93;;;;;;;;;;7381080;19;20011;-76
2022/05/15 04:41:47;;;;;;;14.73;4.80;;;;;;;;;;7378411;19;20021;-81
2022/05/15 04:44:13;;;;;;;15.88;5.15;;;;;;;;;;7390803;19;20009;-76
2022/05/15 04:46:38;;;;;;;13.85;5.38;;;;;;;;;;7381928;19;20382;-77
2022/05/15 04:49:04;;;;;;;11.18;5.18;;;;;;;;;;7384048;19;20010;-80
2022/05/15 04:51:29;;;;;;;9.75;5.57;;;;;;;;;;7380747;19;20011;-77
2022/05/15 04:53:55;;;;;;;13.55;5.82;;;;;;;;;;7381190;19;20078;-80
2022/05/15 04:56:20;;;;;;;10.23;4.80;;;;;;;;;;7382953;19;20017;-79
2022/05/15 04:58:46;;;;;;;12.85;5.13;;;;;;;;;;7385495;19;20077;-78
2022/05/15 05:01:11;;;;;;;10.82;4.93;;;;;;;;;;7384876;19;20028;-78
2022/05/15 05:03:36;;;;;;;14.05;5.63;;;;;;;;;;7381265;19;20553;-80
2022/05/15 05:06:02;;;;;;;12.20;5.00;;;;;;;;;;7380442;19;20010;-78
2022/05/15 05:08:27;;;;;;;15.82;4.82;;;;;;;;;;7382076;19;20022;-78
2022/05/15 05:10:52;;;;;;;12.43;4.80;;;;;;;;;;7380244;19;20006;-78
2022/05/15 05:13:17;;;;;;;15.37;4.83;;;;;;;;;;7384244;19;20272;-78
2022/05/15 05:15:43;;;;;;;14.40;5.20;;;;;;;;;;7382547;19;20315;-77
2022/05/15 05:18:08;;;;;;;10.32;4.60;;;;;;;;;;7377911;19;20010;-78
2022/05/15 05:20:33;;;;;;;14.65;4.88;;;;;;;;;;7379097;19;20007;-80
2022/05/15 05:22:58;;;;;;;18.42;5.40;;;;;;;;;;7380996;19;20014;-77
2022/05/15 05:25:23;;;;;;;11.17;4.80;;;;;;;;;;7379908;19;20002;-78
2022/05/15 05:27:48;;;;;;;9.27;4.43;;;;;;;;;;7374457;19;20093;-78
2022/05/15 05:30:15;;;;;;;11.03;5.37;;;;;;;;;;7381853;19;20771;-77
2022/05/15 05:32:41;;;;;;;9.35;4.53;;;;;;;;;;7377089;19;20306;-77
2022/05/15 05:35:06;;;;;;;9.50;4.50;;;;;;;;;;7376048;19;20016;-78
2022/05/15 05:37:32;;;;;;;11.32;4.05;;;;;;;;;;7374910;19;20735;-77
2022/05/15 05:39:57;;;;;;;10.90;4.63;;;;;;;;;;7372326;19;20026;-77
2022/05/15 05:42:22;;;;;;;15.53;4.87;;;;;;;;;;7383026;19;20235;-77
2022/05/15 05:44:47;;;;;;;12.40;4.27;;;;;;;;;;7376268;19;20231;-77
2022/05/15 05:47:12;;;;;;;10.17;4.07;;;;;;;;;;7378436;19;20243;-78
2022/05/15 05:49:37;;;;;;;11.83;4.03;;;;;;;;;;7373004;19;20597;-77
2022/05/15 05:52:03;;;;;;;11.93;4.50;;;;;;;;;;7380139;19;20259;-77
2022/05/15 05:54:28;;;;;;;16.55;4.20;;;;;;;;;;7369660;19;20235;-79
2022/05/15 05:56:53;;;;;;;11.35;3.80;;;;;;;;;;7377795;19;20376;-78
2022/05/15 05:59:18;;;;;;;10.60;3.97;;;;;;;;;;7376117;19;20213;-78
2022/05/15 06:01:44;;;;;;;10.37;3.83;;;;;;;;;;7375054;19;20096;-77
2022/05/15 06:06:52;;;;;;;14.27;4.53;;;;;;;;;;7381888;19;20256;-77
2022/05/15 06:09:18;;;;;;;11.97;4.00;;;;;;;;;;7371567;19;19998;-77
2022/05/15 06:11:43;;;;;;;11.40;3.77;;;;;;;;;;7379416;19;20393;-76
2022/05/15 06:14:08;;;;;;;11.67;3.93;;;;;;;;;;7382443;19;20900;-78
2022/05/15 06:16:33;;;;;;;8.68;3.72;;;;;;;;;;7380302;19;19998;-79
2022/05/15 06:18:59;;;;;;;10.50;3.53;;;;;;;;;;7377735;19;20073;-79
2022/05/15 06:21:24;;;;;;;12.23;3.67;;;;;;;;;;7382673;19;20340;-77
2022/05/15 06:23:50;;;;;;;13.25;3.83;;;;;;;;;;7377177;19;20430;-78
2022/05/15 06:26:15;;;;;;;11.13;3.83;;;;;;;;;;7378053;19;20362;-77
2022/05/15 06:28:40;;;;;;;12.43;3.63;;;;;;;;;;7377600;19;20011;-78
2022/05/15 06:31:05;;;;;;;13.93;3.78;;;;;;;;;;7373412;19;20034;-78
2022/05/15 06:33:30;;;;;;;11.97;3.33;;;;;;;;;;7372847;19;20098;-77
2022/05/15 06:35:56;;;;;;;9.37;4.10;;;;;;;;;;7377751;19;20319;-79
2022/05/15 06:38:21;;;;;;;10.00;3.42;;;;;;;;;;7372166;19;20014;-78
2022/05/15 06:40:46;;;;;;;14.47;3.93;;;;;;;;;;7376502;19;20248;-77
2022/05/15 06:43:12;;;;;;;10.32;3.35;;;;;;;;;;7376570;19;20590;-77
2022/05/15 06:45:37;;;;;;;11.73;3.73;;;;;;;;;;7376884;19;20002;-78
2022/05/15 06:48:02;;;;;;;11.70;3.85;;;;;;;;;;7380574;19;20247;-78
2022/05/15 06:50:27;;;;;;;10.43;3.75;;;;;;;;;;7377320;19;20332;-77
2022/05/15 06:52:53;;;;;;;19.67;4.37;;;;;;;;;;7377314;19;20456;-79
2022/05/15 06:55:20;;;;;;;11.00;2.97;;;;;;;;;;7374881;19;20010;-79
2022/05/15 06:57:47;;;;;;;9.75;3.28;;;;;;;;;;7373483;19;20101;-77
2022/05/15 07:00:17;;;;;;;11.60;3.55;;;;;;;;;;7377671;19;19998;-77
2022/05/15 07:02:42;;;;;;;10.50;3.22;;;;;;;;;;7373710;19;20339;-78
2022/05/15 07:05:10;;;;;;;8.27;3.33;;;;;;;;;;7375377;19;20003;-77
2022/05/15 07:07:35;;;;;;;8.05;3.10;;;;;;;;;;7365658;19;20014;-78
2022/05/15 07:10:00;;;;;;;11.40;3.60;;;;;;;;;;7374772;19;20034;-76
2022/05/15 07:12:26;;;;;;;10.00;3.22;;;;;;;;;;7376713;19;20011;-78
2022/05/15 07:14:51;;;;;;;10.43;3.53;;;;;;;;;;7377100;19;20006;-76
2022/05/15 07:17:16;;;;;;;10.33;3.00;;;;;;;;;;7367028;19;20013;-77
2022/05/15 07:19:41;;;;;;;14.53;2.93;;;;;;;;;;7378692;19;20244;-78
2022/05/15 07:22:07;;;;;;;9.45;2.95;;;;;;;;;;7366816;19;20015;-77
2022/05/15 07:24:32;;;;;;;9.48;2.67;;;;;;;;;;7371343;19;20018;-77
2022/05/15 07:26:57;;;;;;;8.73;2.90;;;;;;;;;;7379040;19;20006;-77
2022/05/15 07:29:24;;;;;;;10.63;3.53;;;;;;;;;;7379117;19;20485;-76
2022/05/15 07:31:51;;;;;;;9.40;2.60;;;;;;;;;;7370030;19;20462;-76
2022/05/15 07:34:16;;;;;;;9.73;3.13;;;;;;;;;;7373350;19;19999;-75
2022/05/15 07:36:42;;;;;;;10.02;2.58;;;;;;;;;;7370508;19;20028;-77
2022/05/15 07:39:07;;;;;;;11.38;2.60;;;;;;;;;;7369542;19;20021;-76
2022/05/15 07:41:32;;;;;;;7.97;2.53;;;;;;;;;;7371477;19;20498;-76
2022/05/15 07:43:57;;;;;;;7.63;2.57;;;;;;;;;;7375518;19;20006;-77
2022/05/15 07:46:23;;;;;;;8.30;2.72;;;;;;;;;;7372514;19;20015;-76
2022/05/15 07:48:48;;;;;;;8.68;2.88;;;;;;;;;;7377311;19;20006;-77
2022/05/15 07:51:13;;;;;;;9.10;2.60;;;;;;;;;;7375667;19;19999;-78
2022/05/15 07:53:39;;;;;;;9.00;2.88;;;;;;;;;;7372476;19;20015;-77
2022/05/15 07:56:09;;;;;;;9.15;2.47;;;;;;;;;;7369647;19;20465;-78
2022/05/15 07:58:35;;;;;;;7.72;2.47;;;;;;;;;;7366011;19;20011;-79
2022/05/15 08:01:03;;;;;;;7.78;2.40;;;;;;;;;;7358331;19;20344;-77
2022/05/15 08:03:28;;;;;;;9.18;2.97;;;;;;;;;;7374792;19;20078;-77
2022/05/15 08:08:37;;;;;;;;;;;;;;;;;;7367275;19;21045;-77
2022/05/15 08:11:02;;;;;;;9.07;2.90;;;;;;;;;;7374187;19;19918;-77
2022/05/15 08:13:29;;;;;;;6.80;2.13;;;;;;;;;;7354725;19;20011;-77
2022/05/15 08:15:54;;;;;;;9.02;2.50;;;;;;;;;;7355132;19;20283;-76
2022/05/15 08:23:48;;;;;;;;;;;;;;;;;;7371321;19;20016;-77
2022/05/15 08:26:13;;;;;;;9.32;2.22;;;;;;;;;;7371652;19;19915;-77
2022/05/15 08:28:39;;;;;;;7.53;2.33;;;;;;;;;;7355485;19;20006;-78
2022/05/15 08:31:04;;;;;;;15.18;2.42;;;;;;;;;;7373485;19;20002;-77
2022/05/15 08:33:31;;;;;;;7.47;1.98;;;;;;;;;;7364425;19;20416;-78
2022/05/15 08:35:56;;;;;;;10.20;2.45;;;;;;;;;;7363668;19;19994;-79
2022/05/15 08:38:21;;;;;;;13.77;2.42;;;;;;;;;;7370798;19;20084;-76
2022/05/15 08:40:53;;;;;;;8.10;2.57;;;;;;;;;;7377840;19;20462;-76
2022/05/15 08:43:20;;;;;;;6.10;1.90;;;;;;;;;;7353831;19;20486;-79
2022/05/15 08:45:52;;;;;;;10.93;2.67;;;;;;;;;;7354142;19;20002;-80
2022/05/15 08:48:17;;;;;;;7.32;2.22;;;;;;;;;;7360491;19;20101;-80
2022/05/15 08:50:46;;;;;;;7.60;2.67;;;;;;;;;;7354858;19;20030;-80
2022/05/15 08:53:15;;;;;;;6.47;2.40;;;;;;;;;;7359107;19;20026;-80
2022/05/15 08:55:42;;;;;;;8.82;2.00;;;;;;;;;;7357659;19;19995;-80
2022/05/15 08:58:15;;;;;;;8.48;2.42;;;;;;;;;;7371737;19;20011;-80
2022/05/15 09:00:43;;;;;;;9.68;2.22;;;;;;;;;;7382128;19;20007;-80
2022/05/15 09:03:11;;;;;;;6.80;2.00;;;;;;;;;;7360481;19;20022;-79
2022/05/15 09:05:37;;;;;;;9.30;2.40;;;;;;;;;;7371050;19;20001;-80
2022/05/15 09:08:17;;;;;;;8.05;2.42;;;;;;;;;;7361170;19;20019;-79
2022/05/15 09:10:49;;;;;;;8.40;2.20;;;;;;;;;;7371721;19;20293;-77
2022/05/15 09:13:33;;;;;;;7.70;1.75;;;;;;;;;;7368076;19;20010;-79
2022/05/15 09:16:01;;;;;;;8.05;2.08;;;;;;;;;;7369849;19;20010;-80
2022/05/15 09:18:27;;;;;;;6.25;1.80;;;;;;;;;;7364937;19;20036;-80
2022/05/15 09:20:52;;;;;;;7.78;1.85;;;;;;;;;;7370738;19;20011;-80
2022/05/15 09:23:25;;;;;;;8.77;1.97;;;;;;;;;;7371633;19;20368;-80
2022/05/15 09:25:51;;;;;;;;;;;;;;;;;;7366941;19;20573;-78
2022/05/15 09:28:16;;;;;;;6.43;1.50;;;;;;;;;;7363268;19;20619;-80
2022/05/15 09:30:42;;;;;;;7.45;1.90;;;;;;;;;;7359051;19;20218;-80
2022/05/15 09:33:22;;;;;;;9.05;1.98;;;;;;;;;;7368442;19;20022;-80
2022/05/15 09:35:47;;;;;;;7.32;1.92;;;;;;;;;;7373623;19;20018;-79
2022/05/15 09:38:28;;;;;;;6.88;1.95;;;;;;;;;;7363323;19;20032;-80
2022/05/15 09:43:54;;;;;;;6.80;1.90;;;;;;;;;;7370206;19;20047;-80
2022/05/15 09:46:21;;;;;;;6.78;1.90;;;;;;;;;;7353880;19;20346;-80
2022/05/15 09:48:50;;;;;;;9.38;2.05;;;;;;;;;;7366287;19;20474;-80
2022/05/15 09:51:22;;;;;;;8.90;2.20;;;;;;;;;;7372794;19;20015;-80
2022/05/15 09:53:50;;;;;;;6.82;1.83;;;;;;;;;;7376299;19;20024;-81
2022/05/15 09:56:19;;;;;;;10.35;2.20;;;;;;;;;;7355676;19;20046;-79
2022/05/15 09:58:55;;;;;;;9.75;1.70;;;;;;;;;;7349252;19;20259;-79
2022/05/15 10:01:20;;;;;;;9.35;1.92;;;;;;;;;;7358828;19;20010;-81
2022/05/15 10:03:50;;;;;;;5.60;1.85;;;;;;;;;;7372163;19;20489;-80
2022/05/15 10:06:19;;;;;;;10.30;1.80;;;;;;;;;;7361933;19;20296;-80
2022/05/15 10:08:44;;;;;;;8.75;1.92;;;;;;;;;;7323573;19;20668;-80
2022/05/15 10:11:17;;;;;;;10.10;2.07;;;;;;;;;;7354041;19;20008;-80
2022/05/15 10:13:50;;;;;;;6.27;1.63;;;;;;;;;;7374457;19;20011;-80
2022/05/15 10:16:27;;;;;;;5.75;1.65;;;;;;;;;;7370212;19;20267;-80
2022/05/15 10:19:09;;;;;;;11.27;1.85;;;;;;;;;;7351159;19;20027;-80
2022/05/15 10:21:42;;;;;;;10.68;1.80;;;;;;;;;;7367839;19;20024;-80
2022/05/15 10:24:10;;;;;;;8.75;2.03;;;;;;;;;;7374896;19;20012;-79
2022/05/15 10:26:45;;;;;;;7.05;1.65;;;;;;;;;;7371688;19;20010;-80
2022/05/15 10:29:10;;;;;;;9.85;1.95;;;;;;;;;;7375761;19;20009;-79
2022/05/15 10:31:38;;;;;;;7.13;1.80;;;;;;;;;;7365160;19;20010;-79
2022/05/15 10:34:10;;;;;;;5.65;2.03;;;;;;;;;;7374019;19;20003;-80
2022/05/15 10:36:53;;;;;;;7.38;1.73;;;;;;;;;;7368841;19;20046;-80
2022/05/15 10:39:19;;;;;;;;;;;;;;;;;;7369150;19;20023;-80
2022/05/15 10:41:50;;;;;;;6.53;1.77;;;;;;;;;;7358509;19;19919;-80
2022/05/15 10:44:27;;;;;;;7.28;1.85;;;;;;;;;;7380279;19;20501;-79
2022/05/15 10:46:56;;;;;;;6.78;1.85;;;;;;;;;;7375671;19;20070;-79
2022/05/15 10:49:22;;;;;;;6.68;1.70;;;;;;;;;;7362696;19;20009;-81
2022/05/15 10:51:47;;;;;;;5.53;1.63;;;;;;;;;;7337179;19;20014;-78
2022/05/15 10:57:29;;;;;;;7.18;2.15;;;;;;;;;;7370846;19;20012;-74
2022/05/15 10:59:57;;;;;;;11.10;1.85;;;;;;;;;;7374989;19;20003;-78
2022/05/15 11:02:35;;;;;;;11.60;2.35;;;;;;;;;;7363772;19;20478;-75
2022/05/15 11:05:07;;;;;;;7.00;1.88;;;;;;;;;;7364995;19;20015;-80
2022/05/15 11:07:39;;;;;;;7.45;1.75;;;;;;;;;;7369991;19;20007;-76
2022/05/15 11:10:09;;;;;;;18.92;2.80;;;;;;;;;;7372985;19;19999;-74
2022/05/15 11:12:48;;;;;;;7.05;1.90;;;;;;;;;;7367362;19;20019;-76
2022/05/15 11:15:20;;;;;;;9.88;1.60;;;;;;;;;;7373013;19;20007;-78
2022/05/15 11:18:04;;;;;;;8.52;2.00;;;;;;;;;;7370476;19;20003;-79
2022/05/15 11:20:34;;;;;;;12.93;2.38;;;;;;;;;;7368457;19;20007;-77
2022/05/15 11:23:06;;;;;;;6.18;2.45;;;;;;;;;;7364251;19;20385;-76
2022/05/15 11:25:43;;;;;;;7.88;2.00;;;;;;;;;;7367843;19;20006;-75
2022/05/15 11:28:20;;;;;;;4.68;1.40;;;;;;;;;;7375815;19;20014;-76
2022/05/15 11:30:47;;;;;;;6.53;2.03;;;;;;;;;;7358424;19;20002;-77
2022/05/15 11:33:31;;;;;;;7.15;1.98;;;;;;;;;;7362819;19;20019;-78
2022/05/15 11:36:05;;;;;;;6.78;1.80;;;;;;;;;;7364259;19;20011;-77
2022/05/15 11:38:43;;;;;;;5.25;1.42;;;;;;;;;;7351405;19;20042;-79
2022/05/15 11:41:32;;;;;;;7.43;1.95;;;;;;;;;;7362209;19;20003;-76
2022/05/15 11:43:58;;;;;;;8.43;1.95;;;;;;;;;;7358024;19;20010;-77
2022/05/15 11:46:42;;;;;;;6.20;1.65;;;;;;;;;;7365606;19;20031;-76
2022/05/15 11:49:11;;;;;;;5.82;1.50;;;;;;;;;;7377798;19;20010;-77
2022/05/15 11:51:37;;;;;;;7.72;1.50;;;;;;;;;;7378030;19;20029;-75
2022/05/15 11:54:04;;;;;;;6.47;1.85;;;;;;;;;;7379581;19;19994;-76
2022/05/15 11:56:32;;;;;;;5.82;1.70;;;;;;;;;;7381230;19;20265;-79
2022/05/15 11:59:15;;;;;;;6.53;1.92;;;;;;;;;;7382016;19;20353;-77
2022/05/15 12:01:43;;;;;;;7.60;1.63;;;;;;;;;;7376675;19;20011;-77
2022/05/15 12:04:15;;;;;;;8.35;2.00;;;;;;;;;;7379583;19;20034;-75
2022/05/15 12:07:06;;;;;;;4.90;1.90;;;;;;;;;;7372997;19;20018;-73
2022/05/15 12:09:32;;;;;;;6.30;1.60;;;;;;;;;;7371304;19;20013;-75
2022/05/15 12:12:17;;;;;;;9.60;2.08;;;;;;;;;;7383253;19;20203;-75
2022/05/15 12:15:02;;;;;;;11.88;2.30;;;;;;;;;;7370307;19;20003;-77
2022/05/15 12:17:34;;;;;;;7.80;1.52;;;;;;;;;;7378524;19;20014;-74
2022/05/15 12:20:28;;;;;;;7.85;1.52;;;;;;;;;;7382294;19;19999;-76
2022/05/15 12:23:13;;;;;;;5.82;1.48;;;;;;;;;;7376772;19;20017;-76
2022/05/15 12:25:54;;;;;;;6.32;1.80;;;;;;;;;;7371779;19;20550;-76
2022/05/15 12:31:10;;;;;;;8.13;1.73;;;;;;;;;;7372773;19;20025;-78
2022/05/15 12:33:40;;;;;;;7.13;1.67;;;;;;;;;;7373031;19;20003;-75
2022/05/15 12:36:15;;;;;;;6.70;1.80;;;;;;;;;;7367195;19;20034;-76
2022/05/15 12:38:46;;;;;;;5.10;1.70;;;;;;;;;;7370044;19;20015;-76
2022/05/15 12:41:13;;;;;;;7.63;1.63;;;;;;;;;;7367464;19;20066;-76
2022/05/15 12:43:40;;;;;;;6.25;1.48;;;;;;;;;;7365181;19;20418;-75
2022/05/15 12:46:07;;;;;;;6.82;1.73;;;;;;;;;;7363294;19;20407;-75
2022/05/15 12:48:37;;;;;;;7.18;2.20;;;;;;;;;;7371785;19;20014;-77
2022/05/15 12:51:09;;;;;;;6.15;1.70;;;;;;;;;;7380294;19;20002;-77
2022/05/15 12:53:34;;;;;;;5.97;1.40;;;;;;;;;;7377857;19;20021;-77
2022/05/15 12:56:10;;;;;;;8.32;1.80;;;;;;;;;;7376284;19;19998;-78
2022/05/15 12:58:36;;;;;;;6.95;1.80;;;;;;;;;;7378335;19;20022;-75
2022/05/15 13:01:03;;;;;;;7.43;1.98;;;;;;;;;;7376193;19;20035;-76
2022/05/15 13:03:28;;;;;;;8.90;1.92;;;;;;;;;;7376838;19;20066;-77
2022/05/15 13:05:55;;;;;;;6.63;2.13;;;;;;;;;;7378011;19;20011;-77
2022/05/15 13:08:21;;;;;;;6.05;1.95;;;;;;;;;;7366344;19;20002;-76
2022/05/15 13:10:55;;;;;;;6.57;1.50;;;;;;;;;;7375738;19;20372;-77
2022/05/15 13:13:29;;;;;;;5.05;1.60;;;;;;;;;;7380395;19;20012;-77
2022/05/15 13:15:55;;;;;;;7.07;1.58;;;;;;;;;;7375379;19;20027;-76
2022/05/15 13:18:22;;;;;;;7.82;1.63;;;;;;;;;;7379082;19;20038;-75
2022/05/15 13:20:49;;;;;;;5.15;1.58;;;;;;;;;;7379785;19;19994;-77
2022/05/15 13:23:15;;;;;;;6.53;1.75;;;;;;;;;;7378114;19;20478;-77
2022/05/15 13:25:41;;;;;;;7.45;1.58;;;;;;;;;;7375856;19;20323;-77
2022/05/15 13:28:07;;;;;;;7.50;1.80;;;;;;;;;;7378952;19;20057;-76
2022/05/15 13:30:33;;;;;;;5.95;1.50;;;;;;;;;;7380463;19;20515;-75
2022/05/15 13:33:01;;;;;;;5.68;1.60;;;;;;;;;;7377795;19;20609;-75
2022/05/15 13:35:28;;;;;;;8.85;2.15;;;;;;;;;;7352610;19;20036;-75
2022/05/15 13:37:54;;;;;;;4.50;1.38;;;;;;;;;;7365296;19;20031;-75
2022/05/15 13:43:18;;;;;;;6.88;1.52;;;;;;;;;;7369157;19;20026;-76
2022/05/15 13:45:47;;;;;;;6.65;1.38;;;;;;;;;;7370280;19;20418;-75
2022/05/15 13:48:12;;;;;;;8.90;1.70;;;;;;;;;;7375187;19;20019;-76
2022/05/15 13:50:40;;;;;;;6.00;1.80;;;;;;;;;;7361161;19;20431;-75
2022/05/15 13:53:24;;;;;;;6.38;1.50;;;;;;;;;;7366074;19;20018;-75
2022/05/15 13:55:54;;;;;;;6.70;1.77;;;;;;;;;;7376613;19;20026;-77
2022/05/15 13:58:20;;;;;;;7.15;1.48;;;;;;;;;;7373511;19;20010;-76
2022/05/15 14:01:11;;;;;;;9.48;1.48;;;;;;;;;;7375390;19;20022;-76
2022/05/15 14:03:37;;;;;;;4.97;1.63;;;;;;;;;;7369549;19;20551;-76
2022/05/15 14:06:18;;;;;;;4.82;1.27;;;;;;;;;;7376591;19;20336;-76
2022/05/15 14:08:57;;;;;;;6.90;1.50;;;;;;;;;;7373570;19;20097;-76
2022/05/15 14:11:23;;;;;;;5.18;1.70;;;;;;;;;;7364878;19;20478;-76
2022/05/15 14:13:49;;;;;;;3.85;1.33;;;;;;;;;;7372426;19;20018;-75
2022/05/15 14:16:21;;;;;;;6.15;1.33;;;;;;;;;;7363651;19;20417;-75
2022/05/15 14:18:47;;;;;;;4.43;1.35;;;;;;;;;;7376652;19;20032;-75
2022/05/15 14:21:17;;;;;;;7.65;1.60;;;;;;;;;;7376792;19;19995;-76
2022/05/15 14:23:42;;;;;;;6.32;1.40;;;;;;;;;;7367866;19;20483;-73
2022/05/15 14:26:09;;;;;;;4.25;1.27;;;;;;;;;;7360056;19;19990;-72
2022/05/15 14:28:34;;;;;;;6.18;1.80;;;;;;;;;;7370130;19;20006;-74
2022/05/15 14:31:00;;;;;;;6.40;1.73;;;;;;;;;;7364587;19;20001;-73
2022/05/15 14:33:26;;;;;;;5.07;1.17;;;;;;;;;;7373435;19;20086;-76
2022/05/15 14:36:00;;;;;;;5.75;1.50;;;;;;;;;;7376321;19;20006;-75
2022/05/15 14:38:25;;;;;;;4.13;1.20;;;;;;;;;;7370556;19;20463;-76
2022/05/15 14:40:51;;;;;;;4.73;1.20;;;;;;;;;;7369859;19;20474;-76
2022/05/15 14:43:16;;;;;;;5.30;1.50;;;;;;;;;;7376720;19;20590;-75
2022/05/15 14:45:43;;;;;;;4.40;1.50;;;;;;;;;;7375051;19;20033;-76
2022/05/15 14:48:09;;;;;;;4.90;1.50;;;;;;;;;;7370780;19;20749;-76
2022/05/15 14:50:34;;;;;;;4.82;1.30;;;;;;;;;;7366478;19;20009;-73
2022/05/15 14:53:02;;;;;;;5.03;1.58;;;;;;;;;;7378881;19;20007;-76
2022/05/15 14:58:14;;;;;;;5.35;1.20;;;;;;;;;;7371408;19;20234;-76
2022/05/15 15:00:39;;;;;;;6.55;1.65;;;;;;;;;;7354584;19;19995;-73
2022/05/15 15:03:05;;;;;;;4.13;1.20;;;;;;;;;;7344734;19;20017;-75
2022/05/15 15:05:44;;;;;;;5.45;1.80;;;;;;;;;;7338845;19;20036;-77
2022/05/15 15:08:10;;;;;;;4.50;1.30;;;;;;;;;;7351204;19;20010;-75
2022/05/15 15:10:36;;;;;;;7.00;1.60;;;;;;;;;;7377898;19;20009;-78
2022/05/15 15:13:01;;;;;;;4.17;1.40;;;;;;;;;;7357561;19;20074;-76